Cornion — CQMH — position and weather

sailwx.info

Track history (hours):
 
Tides and Currents Weather Stations Pressure Air Temp Water Temp Dewpoint Dewpoint Depression Visibility Wind Speed Wind Dir Waves Ship Positions

Cornion

Last reported at 2017-Feb-23 11:28 UTC. Time now 2017-Feb-24 21:38 UTC.
Position N 35°59' W 005°10'.

Length 90 m; draft 6.3 m.

Type: Cargo ship. MMSI: 255803370.

Date/timePositionNaut miles runAvg speedWind from/ knotsBaromVisibWave heightAir tempDewpointWater temp
2017-Feb-23 11:28N 35°59' W 005°10'1111.7
2017-Feb-23 10:33N 35°58' W 005°23'1110.5
2017-Feb-23 09:32N 35°56' W 005°36'196 7.5
2017-Feb-22 07:34N 37°34' W 009°07'1010.1
2017-Feb-22 06:34N 37°42' W 008°60'10 9.7
2017-Feb-22 05:34N 37°51' W 008°54'6 5.6
2017-Feb-22 04:29N 37°56' W 008°51'0 0.0
2017-Feb-22 03:32N 37°56' W 008°51'0 0.0
2017-Feb-22 02:32N 37°56' W 008°51'0 0.0
2017-Feb-22 01:32N 37°56' W 008°51'0 0.0
2017-Feb-22 00:32N 37°56' W 008°51'0 0.0
2017-Feb-21 23:32N 37°56' W 008°51'0 0.0
2017-Feb-21 22:32N 37°56' W 008°51'0 0.0
2017-Feb-21 21:32N 37°56' W 008°51'0 0.0
2017-Feb-21 20:32N 37°56' W 008°51'0 0.0
2017-Feb-21 19:32N 37°56' W 008°51'0 0.0
2017-Feb-21 18:32N 37°56' W 008°51'0 0.0
2017-Feb-21 17:32N 37°56' W 008°51'0 0.0
2017-Feb-21 16:32N 37°56' W 008°51'0 0.0
2017-Feb-21 15:32N 37°56' W 008°51'0 0.0
2017-Feb-21 14:32N 37°56' W 008°51'0 0.0
2017-Feb-21 13:32N 37°56' W 008°51'0 0.0
2017-Feb-21 12:32N 37°56' W 008°51'0 0.0
2017-Feb-21 11:32N 37°56' W 008°51'0 0.0
2017-Feb-21 10:32N 37°56' W 008°51'0 0.0
2017-Feb-21 09:32N 37°56' W 008°51'0 0.0
2017-Feb-21 08:32N 37°56' W 008°51'0 0.0
2017-Feb-21 07:32N 37°56' W 008°51'0 0.0
2017-Feb-21 06:32N 37°56' W 008°51'0 0.0
2017-Feb-21 05:32N 37°56' W 008°51'0 0.0
2017-Feb-21 04:32N 37°56' W 008°51'0 0.0
2017-Feb-21 03:32N 37°56' W 008°51'0 0.0
2017-Feb-21 02:32N 37°56' W 008°51'0 0.0
2017-Feb-21 01:32N 37°56' W 008°51'0 0.0
2017-Feb-21 00:32N 37°56' W 008°51'0 0.0
2017-Feb-20 23:32N 37°56' W 008°51'0 0.0
2017-Feb-20 22:32N 37°56' W 008°51'0 0.0
2017-Feb-20 21:32N 37°56' W 008°51'0 0.0
2017-Feb-20 20:32N 37°56' W 008°51'0 0.0
2017-Feb-20 19:32N 37°56' W 008°51'0 0.0
2017-Feb-20 18:32N 37°56' W 008°51'0 0.0
2017-Feb-20 17:32N 37°56' W 008°51'0 0.0
2017-Feb-20 16:32N 37°56' W 008°51'0 0.0
2017-Feb-20 15:32N 37°56' W 008°51'0 0.0
2017-Feb-20 14:32N 37°56' W 008°51'0 0.0
2017-Feb-20 13:32N 37°56' W 008°51'0 0.0
2017-Feb-20 12:32N 37°56' W 008°51'0 0.0
2017-Feb-20 11:32N 37°56' W 008°51'0 0.0
2017-Feb-20 10:32N 37°56' W 008°51'0 0.0
2017-Feb-20 09:32N 37°56' W 008°51'0 0.0
2017-Feb-20 08:32N 37°56' W 008°51'0 0.0
2017-Feb-20 07:32N 37°56' W 008°51'0 0.0
2017-Feb-20 06:32N 37°56' W 008°51'0 0.0
2017-Feb-20 05:32N 37°56' W 008°51'0 0.0
2017-Feb-20 04:32N 37°56' W 008°51'0 0.0
2017-Feb-20 03:32N 37°56' W 008°51'0 0.0
2017-Feb-20 02:32N 37°56' W 008°51'0 0.0
2017-Feb-20 01:32N 37°56' W 008°51'0 0.0
2017-Feb-20 00:32N 37°56' W 008°51'0 0.0
2017-Feb-19 23:32N 37°56' W 008°51'0 0.0
2017-Feb-19 22:32N 37°56' W 008°51'0 0.0
2017-Feb-19 21:32N 37°56' W 008°51'0 0.0
2017-Feb-19 20:32N 37°56' W 008°51'0 0.0
2017-Feb-19 19:32N 37°56' W 008°51'0 0.0
2017-Feb-19 18:32N 37°56' W 008°51'0 0.0
2017-Feb-19 17:32N 37°56' W 008°51'0 0.0
2017-Feb-19 16:32N 37°56' W 008°51'0 0.0
2017-Feb-19 15:32N 37°56' W 008°51'0 0.0
2017-Feb-19 14:29N 37°56' W 008°51'0 0.0
2017-Feb-19 13:32N 37°56' W 008°51'0 0.0
2017-Feb-19 12:32N 37°56' W 008°51'0 0.0
2017-Feb-19 11:32N 37°56' W 008°51'0 0.1
2017-Feb-19 10:34N 37°56' W 008°51'3 3.0
2017-Feb-19 09:34N 37°54' W 008°53'7 7.0
2017-Feb-19 08:33N 37°47' W 008°54'1 0.6
2017-Feb-19 07:33N 37°47' W 008°54'1 0.6
2017-Feb-19 06:33N 37°47' W 008°54'6 6.1
2017-Feb-19 05:33N 37°43' W 008°59'9 8.6
2017-Feb-19 04:33N 37°36' W 009°05'  
Track history (hours):
 
Tides and Currents Weather Stations Pressure Air Temp Water Temp Dewpoint Dewpoint Depression Visibility Wind Speed Wind Dir Waves Ship Positions

Cornion

Last reported at 2017-Feb-23 11:28 UTC. Time now 2017-Feb-24 21:38 UTC.
Position N 35°59' W 005°10'.

Length 90 m; draft 6.3 m.

Type: Cargo ship. MMSI: 255803370.

Date/timePositionNaut miles runAvg speedWind from/ knotsBaromVisibWave heightAir tempDewpointWater temp
2017-Feb-23 11:28N 35°59' W 005°10'1111.7
2017-Feb-23 10:33N 35°58' W 005°23'1110.5
2017-Feb-23 09:32N 35°56' W 005°36'196 7.5
2017-Feb-22 07:34N 37°34' W 009°07'1010.1
2017-Feb-22 06:34N 37°42' W 008°60'10 9.7
2017-Feb-22 05:34N 37°51' W 008°54'6 5.6
2017-Feb-22 04:29N 37°56' W 008°51'0 0.0
2017-Feb-22 03:32N 37°56' W 008°51'0 0.0
2017-Feb-22 02:32N 37°56' W 008°51'0 0.0
2017-Feb-22 01:32N 37°56' W 008°51'0 0.0
2017-Feb-22 00:32N 37°56' W 008°51'0 0.0
2017-Feb-21 23:32N 37°56' W 008°51'0 0.0
2017-Feb-21 22:32N 37°56' W 008°51'0 0.0
2017-Feb-21 21:32N 37°56' W 008°51'0 0.0
2017-Feb-21 20:32N 37°56' W 008°51'0 0.0
2017-Feb-21 19:32N 37°56' W 008°51'0 0.0
2017-Feb-21 18:32N 37°56' W 008°51'0 0.0
2017-Feb-21 17:32N 37°56' W 008°51'0 0.0
2017-Feb-21 16:32N 37°56' W 008°51'0 0.0
2017-Feb-21 15:32N 37°56' W 008°51'0 0.0
2017-Feb-21 14:32N 37°56' W 008°51'0 0.0
2017-Feb-21 13:32N 37°56' W 008°51'0 0.0
2017-Feb-21 12:32N 37°56' W 008°51'0 0.0
2017-Feb-21 11:32N 37°56' W 008°51'0 0.0
2017-Feb-21 10:32N 37°56' W 008°51'0 0.0
2017-Feb-21 09:32N 37°56' W 008°51'0 0.0
2017-Feb-21 08:32N 37°56' W 008°51'0 0.0
2017-Feb-21 07:32N 37°56' W 008°51'0 0.0
2017-Feb-21 06:32N 37°56' W 008°51'0 0.0
2017-Feb-21 05:32N 37°56' W 008°51'0 0.0
2017-Feb-21 04:32N 37°56' W 008°51'0 0.0
2017-Feb-21 03:32N 37°56' W 008°51'0 0.0
2017-Feb-21 02:32N 37°56' W 008°51'0 0.0
2017-Feb-21 01:32N 37°56' W 008°51'0 0.0
2017-Feb-21 00:32N 37°56' W 008°51'0 0.0
2017-Feb-20 23:32N 37°56' W 008°51'0 0.0
2017-Feb-20 22:32N 37°56' W 008°51'0 0.0
2017-Feb-20 21:32N 37°56' W 008°51'0 0.0
2017-Feb-20 20:32N 37°56' W 008°51'0 0.0
2017-Feb-20 19:32N 37°56' W 008°51'0 0.0
2017-Feb-20 18:32N 37°56' W 008°51'0 0.0
2017-Feb-20 17:32N 37°56' W 008°51'0 0.0
2017-Feb-20 16:32N 37°56' W 008°51'0 0.0
2017-Feb-20 15:32N 37°56' W 008°51'0 0.0
2017-Feb-20 14:32N 37°56' W 008°51'0 0.0
2017-Feb-20 13:32N 37°56' W 008°51'0 0.0
2017-Feb-20 12:32N 37°56' W 008°51'0 0.0
2017-Feb-20 11:32N 37°56' W 008°51'0 0.0
2017-Feb-20 10:32N 37°56' W 008°51'0 0.0
2017-Feb-20 09:32N 37°56' W 008°51'0 0.0
2017-Feb-20 08:32N 37°56' W 008°51'0 0.0
2017-Feb-20 07:32N 37°56' W 008°51'0 0.0
2017-Feb-20 06:32N 37°56' W 008°51'0 0.0
2017-Feb-20 05:32N 37°56' W 008°51'0 0.0
2017-Feb-20 04:32N 37°56' W 008°51'0 0.0
2017-Feb-20 03:32N 37°56' W 008°51'0 0.0
2017-Feb-20 02:32N 37°56' W 008°51'0 0.0
2017-Feb-20 01:32N 37°56' W 008°51'0 0.0
2017-Feb-20 00:32N 37°56' W 008°51'0 0.0
2017-Feb-19 23:32N 37°56' W 008°51'0 0.0
2017-Feb-19 22:32N 37°56' W 008°51'0 0.0
2017-Feb-19 21:32N 37°56' W 008°51'0 0.0
2017-Feb-19 20:32N 37°56' W 008°51'0 0.0
2017-Feb-19 19:32N 37°56' W 008°51'0 0.0
2017-Feb-19 18:32N 37°56' W 008°51'0 0.0
2017-Feb-19 17:32N 37°56' W 008°51'0 0.0
2017-Feb-19 16:32N 37°56' W 008°51'0 0.0
2017-Feb-19 15:32N 37°56' W 008°51'0 0.0
2017-Feb-19 14:29N 37°56' W 008°51'0 0.0
2017-Feb-19 13:32N 37°56' W 008°51'0 0.0
2017-Feb-19 12:32N 37°56' W 008°51'0 0.0
2017-Feb-19 11:32N 37°56' W 008°51'0 0.1
2017-Feb-19 10:34N 37°56' W 008°51'3 3.0
2017-Feb-19 09:34N 37°54' W 008°53'7 7.0
2017-Feb-19 08:33N 37°47' W 008°54'1 0.6
2017-Feb-19 07:33N 37°47' W 008°54'1 0.6
2017-Feb-19 06:33N 37°47' W 008°54'6 6.1
2017-Feb-19 05:33N 37°43' W 008°59'9 8.6
2017-Feb-19 04:33N 37°36' W 009°05'  

Dump ship's entire track history